ASA1031 KSFO-KPSP
Flight info
| Callsign | ASA1031 |
|---|---|
| Flight time | 1h 8m |
| Altitude | 39000 |
| Route | WESLA5 KAYEX LOSHN CLASN SIZLR3 |
| Aircraft | B739/M-SDE2E3FGHIRWXY/LB1 |
Departure
| Time | 2026-05-06 20:27 |
|---|---|
| Airport | San Francisco International Airport (KSFO) |
Arrival
| Time | 2026-05-06 21:35 |
|---|---|
| Airport | Palm Springs International Airport (KPSP) |
| Time | Latitude | Longitude | Altitude | Speed | Heading |
|---|---|---|---|---|---|
| 2026-05-06 20:12 | 37.61656 | -122.38127 | 24 ft | 0 kts | 2° |
| 2026-05-06 20:18 | 37.61649 | -122.38128 | 15 ft | 5 kts | 1° |
| 2026-05-06 20:18 | 37.61619 | -122.38130 | 15 ft | 2 kts | 18° |
| 2026-05-06 20:18 | 37.61612 | -122.38134 | 16 ft | 2 kts | 54° |
| 2026-05-06 20:19 | 37.61608 | -122.38147 | 16 ft | 2 kts | 100° |
| 2026-05-06 20:19 | 37.61611 | -122.38161 | 17 ft | 2 kts | 107° |
| 2026-05-06 20:19 | 37.61614 | -122.38174 | 15 ft | 2 kts | 108° |
| 2026-05-06 20:19 | 37.61614 | -122.38176 | 15 ft | 0 kts | 108° |
| 2026-05-06 20:21 | 37.61609 | -122.38157 | 17 ft | 10 kts | 112° |
| 2026-05-06 20:22 | 37.61577 | -122.38060 | 13 ft | 4 kts | 92° |
| 2026-05-06 20:22 | 37.61577 | -122.38059 | 13 ft | 0 kts | 92° |
| 2026-05-06 20:22 | 37.61577 | -122.38050 | 13 ft | 6 kts | 87° |
| 2026-05-06 20:22 | 37.61628 | -122.37989 | 16 ft | 14 kts | 28° |
| 2026-05-06 20:23 | 37.61674 | -122.37886 | 17 ft | 14 kts | 91° |
| 2026-05-06 20:23 | 37.61662 | -122.37760 | 17 ft | 17 kts | 97° |
| 2026-05-06 20:23 | 37.61646 | -122.37588 | 17 ft | 21 kts | 96° |
| 2026-05-06 20:23 | 37.61629 | -122.37406 | 21 ft | 22 kts | 96° |
| 2026-05-06 20:24 | 37.61585 | -122.37189 | 22 ft | 27 kts | 119° |
| 2026-05-06 20:24 | 37.61494 | -122.36980 | 23 ft | 29 kts | 121° |
| 2026-05-06 20:24 | 37.61360 | -122.36766 | 19 ft | 33 kts | 122° |
| 2026-05-06 20:24 | 37.61255 | -122.36518 | 16 ft | 32 kts | 117° |
| 2026-05-06 20:25 | 37.61155 | -122.36274 | 20 ft | 33 kts | 117° |
| 2026-05-06 20:25 | 37.61060 | -122.36040 | 23 ft | 25 kts | 108° |
| 2026-05-06 20:25 | 37.61107 | -122.35903 | 21 ft | 10 kts | 31° |
| 2026-05-06 20:25 | 37.61174 | -122.35882 | 23 ft | 10 kts | 347° |
| 2026-05-06 20:26 | 37.61203 | -122.35923 | 21 ft | 0 kts | 297° |
| 2026-05-06 20:26 | 37.61208 | -122.35934 | 20 ft | 3 kts | 298° |
| 2026-05-06 20:26 | 37.61337 | -122.36240 | 15 ft | 85 kts | 298° |
| 2026-05-06 20:26 | 37.61737 | -122.37199 | 29 ft | 158 kts | 296° |
| 2026-05-06 20:27 | 37.62250 | -122.38432 | 932 ft | 153 kts | 297° |
| 2026-05-06 20:27 | 37.62752 | -122.39662 | 1763 ft | 165 kts | 298° |
| 2026-05-06 20:27 | 37.63359 | -122.41056 | 2170 ft | 198 kts | 299° |
| 2026-05-06 20:27 | 37.64083 | -122.42696 | 2422 ft | 228 kts | 299° |
| 2026-05-06 20:28 | 37.64877 | -122.44493 | 3041 ft | 241 kts | 300° |
| 2026-05-06 20:28 | 37.65696 | -122.46345 | 4008 ft | 241 kts | 301° |
| 2026-05-06 20:28 | 37.66498 | -122.48174 | 5004 ft | 243 kts | 298° |
| 2026-05-06 20:28 | 37.66916 | -122.50327 | 5532 ft | 268 kts | 269° |
| 2026-05-06 20:29 | 37.66395 | -122.52638 | 6246 ft | 282 kts | 240° |
| 2026-05-06 20:29 | 37.65045 | -122.54457 | 7050 ft | 289 kts | 213° |
| 2026-05-06 20:29 | 37.63165 | -122.55330 | 7937 ft | 292 kts | 185° |
| 2026-05-06 20:29 | 37.61156 | -122.55020 | 8769 ft | 294 kts | 159° |
| 2026-05-06 20:30 | 37.59280 | -122.53973 | 9656 ft | 296 kts | 152° |
| 2026-05-06 20:30 | 37.55480 | -122.51464 | 10647 ft | 330 kts | 152° |
| 2026-05-06 20:30 | 37.53342 | -122.50115 | 10837 ft | 355 kts | 152° |
| 2026-05-06 20:31 | 37.51104 | -122.48742 | 11301 ft | 367 kts | 153° |
| 2026-05-06 20:31 | 37.48887 | -122.47152 | 12013 ft | 368 kts | 139° |
| 2026-05-06 20:31 | 37.47142 | -122.44816 | 12820 ft | 366 kts | 128° |
| 2026-05-06 20:31 | 37.45537 | -122.42322 | 13547 ft | 370 kts | 127° |
| 2026-05-06 20:32 | 37.43923 | -122.39765 | 14219 ft | 373 kts | 127° |
| 2026-05-06 20:32 | 37.42301 | -122.37191 | 14819 ft | 377 kts | 127° |
| 2026-05-06 20:32 | 37.40655 | -122.34591 | 15425 ft | 381 kts | 127° |
| 2026-05-06 20:32 | 37.38992 | -122.31983 | 16047 ft | 385 kts | 127° |
| 2026-05-06 20:33 | 37.37301 | -122.29342 | 16666 ft | 388 kts | 127° |
| 2026-05-06 20:33 | 37.35600 | -122.26698 | 17238 ft | 393 kts | 127° |
| 2026-05-06 20:33 | 37.33866 | -122.24008 | 17837 ft | 396 kts | 127° |
| 2026-05-06 20:33 | 37.32117 | -122.21302 | 18433 ft | 400 kts | 127° |
| 2026-05-06 20:34 | 37.30354 | -122.18578 | 18936 ft | 404 kts | 127° |
| 2026-05-06 20:34 | 37.28570 | -122.15823 | 19424 ft | 408 kts | 127° |
| 2026-05-06 20:34 | 37.26767 | -122.13043 | 19929 ft | 412 kts | 127° |
| 2026-05-06 20:34 | 37.24968 | -122.10271 | 20427 ft | 416 kts | 127° |
| 2026-05-06 20:35 | 37.23131 | -122.07443 | 20940 ft | 420 kts | 127° |
| 2026-05-06 20:35 | 37.21280 | -122.04595 | 21450 ft | 423 kts | 127° |
| 2026-05-06 20:35 | 37.19404 | -122.01711 | 21940 ft | 427 kts | 127° |
| 2026-05-06 20:35 | 37.17518 | -121.98816 | 22402 ft | 431 kts | 127° |
| 2026-05-06 20:36 | 37.15613 | -121.95892 | 22865 ft | 434 kts | 127° |
| 2026-05-06 20:36 | 37.13689 | -121.92942 | 23322 ft | 438 kts | 127° |
| 2026-05-06 20:36 | 37.11751 | -121.89972 | 23747 ft | 442 kts | 127° |
| 2026-05-06 20:36 | 37.09795 | -121.86979 | 24161 ft | 445 kts | 127° |
| 2026-05-06 20:37 | 37.07856 | -121.84015 | 24547 ft | 447 kts | 127° |
| 2026-05-06 20:37 | 37.05881 | -121.80999 | 24958 ft | 450 kts | 127° |
| 2026-05-06 20:37 | 37.03890 | -121.77960 | 25314 ft | 452 kts | 127° |
| 2026-05-06 20:37 | 37.01884 | -121.74902 | 25735 ft | 455 kts | 127° |
| 2026-05-06 20:38 | 36.99866 | -121.71828 | 26112 ft | 457 kts | 127° |
| 2026-05-06 20:38 | 36.97837 | -121.68739 | 26511 ft | 460 kts | 127° |
| 2026-05-06 20:38 | 36.95798 | -121.65637 | 26904 ft | 462 kts | 127° |
| 2026-05-06 20:38 | 36.93776 | -121.62565 | 27274 ft | 465 kts | 127° |
| 2026-05-06 20:39 | 36.91689 | -121.59399 | 27642 ft | 468 kts | 127° |
| 2026-05-06 20:39 | 36.89638 | -121.56288 | 28002 ft | 470 kts | 127° |
| 2026-05-06 20:39 | 36.87556 | -121.53134 | 28354 ft | 472 kts | 127° |
| 2026-05-06 20:39 | 36.85460 | -121.49961 | 28693 ft | 475 kts | 127° |
| 2026-05-06 20:40 | 36.83344 | -121.46762 | 29047 ft | 477 kts | 127° |
| 2026-05-06 20:40 | 36.81218 | -121.43551 | 29399 ft | 480 kts | 127° |
| 2026-05-06 20:40 | 36.79089 | -121.40337 | 29774 ft | 482 kts | 127° |
| 2026-05-06 20:40 | 36.76951 | -121.37115 | 30262 ft | 480 kts | 127° |
| 2026-05-06 20:41 | 36.74829 | -121.33920 | 30780 ft | 477 kts | 127° |
| 2026-05-06 20:41 | 36.72721 | -121.30750 | 31305 ft | 473 kts | 127° |
| 2026-05-06 20:41 | 36.70625 | -121.27599 | 31758 ft | 472 kts | 127° |
| 2026-05-06 20:41 | 36.68532 | -121.24455 | 32161 ft | 470 kts | 127° |
| 2026-05-06 20:42 | 36.66443 | -121.21319 | 32568 ft | 469 kts | 127° |
| 2026-05-06 20:42 | 36.64352 | -121.18184 | 32984 ft | 468 kts | 127° |
| 2026-05-06 20:42 | 36.62307 | -121.15120 | 33416 ft | 466 kts | 127° |
| 2026-05-06 20:42 | 36.60233 | -121.12015 | 33850 ft | 464 kts | 126° |
| 2026-05-06 20:43 | 36.58164 | -121.08922 | 34249 ft | 463 kts | 126° |
| 2026-05-06 20:43 | 36.56110 | -121.05853 | 34569 ft | 462 kts | 126° |
| 2026-05-06 20:43 | 36.54044 | -121.02767 | 34859 ft | 462 kts | 126° |
| 2026-05-06 20:43 | 36.51987 | -120.99699 | 35153 ft | 462 kts | 126° |
| 2026-05-06 20:44 | 36.49957 | -120.96675 | 35465 ft | 461 kts | 126° |
| 2026-05-06 20:44 | 36.47907 | -120.93621 | 35767 ft | 459 kts | 126° |
| 2026-05-06 20:44 | 36.45868 | -120.90568 | 36046 ft | 459 kts | 126° |
| 2026-05-06 20:44 | 36.43833 | -120.87512 | 36295 ft | 458 kts | 126° |
| 2026-05-06 20:45 | 36.41807 | -120.84469 | 36554 ft | 458 kts | 126° |
| 2026-05-06 20:45 | 36.39767 | -120.81406 | 36806 ft | 458 kts | 126° |
| 2026-05-06 20:45 | 36.37739 | -120.78364 | 37087 ft | 457 kts | 126° |
| 2026-05-06 20:45 | 36.35714 | -120.75332 | 37351 ft | 457 kts | 126° |
| 2026-05-06 20:46 | 36.33688 | -120.72301 | 37598 ft | 457 kts | 126° |
| 2026-05-06 20:46 | 36.31657 | -120.69267 | 37829 ft | 456 kts | 126° |
| 2026-05-06 20:46 | 36.29632 | -120.66244 | 38084 ft | 455 kts | 125° |
| 2026-05-06 20:46 | 36.27606 | -120.63224 | 38317 ft | 455 kts | 125° |
| 2026-05-06 20:47 | 36.25582 | -120.60208 | 38531 ft | 455 kts | 125° |
| 2026-05-06 20:47 | 36.23559 | -120.57196 | 38745 ft | 454 kts | 125° |
| 2026-05-06 20:47 | 36.21539 | -120.54192 | 38936 ft | 454 kts | 125° |
| 2026-05-06 20:47 | 36.19515 | -120.51185 | 39103 ft | 453 kts | 125° |
| 2026-05-06 20:48 | 36.17495 | -120.48185 | 39148 ft | 455 kts | 126° |
| 2026-05-06 20:48 | 36.13429 | -120.42156 | 39161 ft | 455 kts | 126° |
| 2026-05-06 20:49 | 36.09375 | -120.36156 | 39157 ft | 454 kts | 125° |
| 2026-05-06 20:49 | 36.05334 | -120.30187 | 39148 ft | 452 kts | 125° |
| 2026-05-06 20:50 | 36.01287 | -120.24218 | 39159 ft | 451 kts | 125° |
| 2026-05-06 20:50 | 35.97256 | -120.18282 | 39152 ft | 451 kts | 125° |
| 2026-05-06 20:51 | 35.93246 | -120.12387 | 39152 ft | 451 kts | 125° |
| 2026-05-06 20:51 | 35.89214 | -120.06467 | 39149 ft | 452 kts | 125° |
| 2026-05-06 20:52 | 35.85219 | -120.00476 | 39140 ft | 449 kts | 120° |
| 2026-05-06 20:52 | 35.82327 | -119.93754 | 39151 ft | 442 kts | 110° |
| 2026-05-06 20:53 | 35.79805 | -119.86830 | 39145 ft | 443 kts | 109° |
| 2026-05-06 20:53 | 35.77262 | -119.79958 | 39143 ft | 444 kts | 110° |
| 2026-05-06 20:54 | 35.74662 | -119.73050 | 39140 ft | 445 kts | 110° |
| 2026-05-06 20:54 | 35.72048 | -119.66145 | 39139 ft | 445 kts | 110° |
| 2026-05-06 20:55 | 35.69432 | -119.59240 | 39138 ft | 445 kts | 110° |
| 2026-05-06 20:55 | 35.66810 | -119.52333 | 39138 ft | 445 kts | 110° |
| 2026-05-06 20:55 | 35.65296 | -119.49028 | 39116 ft | 453 kts | 124° |
| 2026-05-06 20:56 | 35.63229 | -119.46086 | 39157 ft | 455 kts | 128° |
| 2026-05-06 20:56 | 35.58870 | -119.40397 | 39143 ft | 457 kts | 128° |
| 2026-05-06 20:57 | 35.54522 | -119.34697 | 39128 ft | 456 kts | 128° |
| 2026-05-06 20:57 | 35.50231 | -119.28957 | 39137 ft | 457 kts | 127° |
| 2026-05-06 20:58 | 35.45951 | -119.23201 | 39143 ft | 457 kts | 127° |
| 2026-05-06 20:58 | 35.41692 | -119.17483 | 39152 ft | 457 kts | 127° |
| 2026-05-06 20:59 | 35.37400 | -119.11727 | 39126 ft | 457 kts | 127° |
| 2026-05-06 20:59 | 35.33111 | -119.05986 | 39131 ft | 457 kts | 127° |
| 2026-05-06 21:00 | 35.28813 | -119.00265 | 39133 ft | 456 kts | 127° |
| 2026-05-06 21:00 | 35.24505 | -118.94556 | 39130 ft | 456 kts | 127° |
| 2026-05-06 21:01 | 35.20195 | -118.88856 | 39125 ft | 456 kts | 127° |
| 2026-05-06 21:01 | 35.15881 | -118.83158 | 39140 ft | 456 kts | 127° |
| 2026-05-06 21:02 | 35.11572 | -118.77475 | 39146 ft | 455 kts | 127° |
| 2026-05-06 21:02 | 35.07291 | -118.71839 | 39168 ft | 454 kts | 127° |
| 2026-05-06 21:03 | 35.02990 | -118.66185 | 38935 ft | 459 kts | 127° |
| 2026-05-06 21:03 | 35.00789 | -118.63291 | 38292 ft | 463 kts | 127° |
| 2026-05-06 21:03 | 34.98609 | -118.60434 | 37667 ft | 455 kts | 127° |
| 2026-05-06 21:03 | 34.96461 | -118.57627 | 36909 ft | 449 kts | 127° |
| 2026-05-06 21:04 | 34.94354 | -118.54875 | 36214 ft | 441 kts | 127° |
| 2026-05-06 21:04 | 34.92276 | -118.52159 | 35470 ft | 435 kts | 127° |
| 2026-05-06 21:04 | 34.90213 | -118.49461 | 34703 ft | 431 kts | 127° |
| 2026-05-06 21:04 | 34.88202 | -118.46831 | 33902 ft | 428 kts | 127° |
| 2026-05-06 21:05 | 34.86168 | -118.44173 | 32968 ft | 429 kts | 127° |
| 2026-05-06 21:05 | 34.84121 | -118.41498 | 32140 ft | 437 kts | 127° |
| 2026-05-06 21:05 | 34.82008 | -118.38736 | 31276 ft | 454 kts | 127° |
| 2026-05-06 21:05 | 34.79821 | -118.35884 | 30568 ft | 462 kts | 128° |
| 2026-05-06 21:06 | 34.78380 | -118.34015 | 30120 ft | 454 kts | 127° |
| 2026-05-06 21:06 | 34.76331 | -118.31170 | 29374 ft | 439 kts | 124° |
| 2026-05-06 21:06 | 34.74470 | -118.28309 | 28751 ft | 424 kts | 122° |
| 2026-05-06 21:06 | 34.72707 | -118.25497 | 28128 ft | 412 kts | 121° |
| 2026-05-06 21:07 | 34.70993 | -118.22756 | 27538 ft | 403 kts | 122° |
| 2026-05-06 21:07 | 34.69286 | -118.20051 | 26974 ft | 405 kts | 122° |
| 2026-05-06 21:07 | 34.67532 | -118.17294 | 26399 ft | 421 kts | 122° |
| 2026-05-06 21:07 | 34.65716 | -118.14466 | 25793 ft | 431 kts | 123° |
| 2026-05-06 21:08 | 34.63863 | -118.11611 | 25159 ft | 429 kts | 123° |
| 2026-05-06 21:08 | 34.62021 | -118.08781 | 24519 ft | 426 kts | 123° |
| 2026-05-06 21:08 | 34.60186 | -118.05958 | 23900 ft | 424 kts | 123° |
| 2026-05-06 21:08 | 34.58365 | -118.03151 | 23213 ft | 421 kts | 123° |
| 2026-05-06 21:09 | 34.56828 | -118.00216 | 22863 ft | 405 kts | 112° |
| 2026-05-06 21:09 | 34.55593 | -117.97194 | 22570 ft | 394 kts | 110° |
| 2026-05-06 21:09 | 34.54425 | -117.94189 | 22315 ft | 395 kts | 110° |
| 2026-05-06 21:09 | 34.53242 | -117.91148 | 22051 ft | 402 kts | 111° |
| 2026-05-06 21:10 | 34.52023 | -117.88073 | 21771 ft | 404 kts | 111° |
| 2026-05-06 21:10 | 34.50791 | -117.85027 | 21494 ft | 400 kts | 111° |
| 2026-05-06 21:10 | 34.49559 | -117.82016 | 21219 ft | 397 kts | 112° |
| 2026-05-06 21:10 | 34.48332 | -117.79032 | 20954 ft | 395 kts | 112° |
| 2026-05-06 21:11 | 34.47106 | -117.76052 | 20689 ft | 393 kts | 112° |
| 2026-05-06 21:11 | 34.45906 | -117.73136 | 20437 ft | 391 kts | 112° |
| 2026-05-06 21:11 | 34.44694 | -117.70192 | 20187 ft | 390 kts | 112° |
| 2026-05-06 21:11 | 34.43486 | -117.67245 | 19931 ft | 390 kts | 111° |
| 2026-05-06 21:12 | 34.42284 | -117.64299 | 19681 ft | 389 kts | 111° |
| 2026-05-06 21:12 | 34.41087 | -117.61364 | 19424 ft | 388 kts | 111° |
| 2026-05-06 21:12 | 34.39891 | -117.58434 | 19166 ft | 388 kts | 112° |
| 2026-05-06 21:12 | 34.38695 | -117.55510 | 18917 ft | 387 kts | 112° |
| 2026-05-06 21:13 | 34.37499 | -117.52588 | 18664 ft | 386 kts | 112° |
| 2026-05-06 21:13 | 34.36307 | -117.49682 | 18396 ft | 385 kts | 112° |
| 2026-05-06 21:13 | 34.35135 | -117.46827 | 18097 ft | 383 kts | 111° |
| 2026-05-06 21:13 | 34.33954 | -117.43952 | 17828 ft | 380 kts | 112° |
| 2026-05-06 21:14 | 34.32770 | -117.41071 | 17566 ft | 377 kts | 112° |
| 2026-05-06 21:14 | 34.31620 | -117.38272 | 17315 ft | 376 kts | 112° |
| 2026-05-06 21:14 | 34.30457 | -117.35447 | 17048 ft | 375 kts | 112° |
| 2026-05-06 21:14 | 34.29267 | -117.32633 | 16794 ft | 375 kts | 114° |
| 2026-05-06 21:15 | 34.27990 | -117.29893 | 16552 ft | 374 kts | 115° |
| 2026-05-06 21:15 | 34.26696 | -117.27172 | 16309 ft | 371 kts | 115° |
| 2026-05-06 21:15 | 34.25415 | -117.24452 | 16117 ft | 372 kts | 115° |
| 2026-05-06 21:15 | 34.24137 | -117.21728 | 16079 ft | 372 kts | 115° |
| 2026-05-06 21:16 | 34.22866 | -117.19016 | 16074 ft | 370 kts | 115° |
| 2026-05-06 21:16 | 34.21601 | -117.16318 | 16071 ft | 369 kts | 115° |
| 2026-05-06 21:16 | 34.20333 | -117.13615 | 16078 ft | 370 kts | 115° |
| 2026-05-06 21:16 | 34.19057 | -117.10898 | 16055 ft | 370 kts | 116° |
| 2026-05-06 21:17 | 34.17793 | -117.08208 | 16076 ft | 369 kts | 116° |
| 2026-05-06 21:17 | 34.16524 | -117.05508 | 16066 ft | 369 kts | 115° |
| 2026-05-06 21:17 | 34.15251 | -117.02805 | 16064 ft | 369 kts | 115° |
| 2026-05-06 21:17 | 34.14001 | -117.00150 | 16065 ft | 369 kts | 115° |
| 2026-05-06 21:18 | 34.12729 | -116.97452 | 16045 ft | 370 kts | 115° |
| 2026-05-06 21:18 | 34.11460 | -116.94762 | 16057 ft | 369 kts | 115° |
| 2026-05-06 21:18 | 34.10194 | -116.92063 | 15706 ft | 368 kts | 115° |
| 2026-05-06 21:18 | 34.08944 | -116.89385 | 15413 ft | 364 kts | 115° |
| 2026-05-06 21:19 | 34.07709 | -116.86739 | 15098 ft | 362 kts | 115° |
| 2026-05-06 21:19 | 34.06472 | -116.84083 | 14802 ft | 364 kts | 115° |
| 2026-05-06 21:19 | 34.05222 | -116.81418 | 14494 ft | 364 kts | 116° |
| 2026-05-06 21:19 | 34.03984 | -116.78774 | 14177 ft | 360 kts | 115° |
| 2026-05-06 21:20 | 34.02926 | -116.76068 | 13798 ft | 355 kts | 106° |
| 2026-05-06 21:20 | 34.02182 | -116.73250 | 13448 ft | 351 kts | 103° |
| 2026-05-06 21:20 | 34.01459 | -116.70422 | 13052 ft | 353 kts | 104° |
| 2026-05-06 21:20 | 34.00737 | -116.67640 | 12652 ft | 351 kts | 104° |
| 2026-05-06 21:21 | 33.99999 | -116.64844 | 12308 ft | 350 kts | 105° |
| 2026-05-06 21:21 | 33.99254 | -116.62054 | 11936 ft | 349 kts | 105° |
| 2026-05-06 21:21 | 33.98507 | -116.59267 | 11573 ft | 349 kts | 105° |
| 2026-05-06 21:21 | 33.97747 | -116.56513 | 11199 ft | 343 kts | 109° |
| 2026-05-06 21:22 | 33.96602 | -116.54031 | 10920 ft | 338 kts | 124° |
| 2026-05-06 21:22 | 33.95000 | -116.51974 | 10546 ft | 330 kts | 134° |
| 2026-05-06 21:22 | 33.93353 | -116.50140 | 10208 ft | 316 kts | 135° |
| 2026-05-06 21:22 | 33.91768 | -116.48379 | 9933 ft | 302 kts | 134° |
| 2026-05-06 21:23 | 33.90275 | -116.46699 | 9635 ft | 291 kts | 134° |
| 2026-05-06 21:23 | 33.88825 | -116.45052 | 9338 ft | 282 kts | 134° |
| 2026-05-06 21:23 | 33.87429 | -116.43455 | 9030 ft | 279 kts | 131° |
| 2026-05-06 21:23 | 33.86307 | -116.41583 | 8735 ft | 276 kts | 114° |
| 2026-05-06 21:24 | 33.85454 | -116.39511 | 8477 ft | 280 kts | 112° |
| 2026-05-06 21:24 | 33.84590 | -116.37385 | 8201 ft | 284 kts | 113° |
| 2026-05-06 21:24 | 33.83714 | -116.35254 | 7903 ft | 284 kts | 114° |
| 2026-05-06 21:24 | 33.82842 | -116.33166 | 7596 ft | 274 kts | 114° |
| 2026-05-06 21:25 | 33.81995 | -116.31159 | 7322 ft | 264 kts | 114° |
| 2026-05-06 21:25 | 33.81177 | -116.29229 | 7067 ft | 255 kts | 114° |
| 2026-05-06 21:25 | 33.80387 | -116.27367 | 6842 ft | 243 kts | 114° |
| 2026-05-06 21:25 | 33.79630 | -116.25585 | 6600 ft | 236 kts | 114° |
| 2026-05-06 21:26 | 33.78853 | -116.23893 | 6406 ft | 224 kts | 121° |
| 2026-05-06 21:26 | 33.77907 | -116.22483 | 6204 ft | 210 kts | 131° |
| 2026-05-06 21:26 | 33.76823 | -116.21385 | 6087 ft | 200 kts | 142° |
| 2026-05-06 21:26 | 33.75524 | -116.20859 | 5953 ft | 203 kts | 186° |
| 2026-05-06 21:27 | 33.74167 | -116.21343 | 5929 ft | 212 kts | 192° |
| 2026-05-06 21:27 | 33.72701 | -116.21107 | 5583 ft | 220 kts | 146° |
| 2026-05-06 21:27 | 33.71653 | -116.19829 | 5255 ft | 211 kts | 131° |
| 2026-05-06 21:27 | 33.70369 | -116.19060 | 4801 ft | 210 kts | 178° |
| 2026-05-06 21:28 | 33.69064 | -116.19623 | 4464 ft | 201 kts | 221° |
| 2026-05-06 21:28 | 33.68139 | -116.20860 | 4111 ft | 198 kts | 230° |
| 2026-05-06 21:28 | 33.67104 | -116.21952 | 3745 ft | 198 kts | 222° |
| 2026-05-06 21:28 | 33.66183 | -116.23187 | 3384 ft | 198 kts | 233° |
| 2026-05-06 21:29 | 33.65443 | -116.24569 | 3134 ft | 191 kts | 242° |
| 2026-05-06 21:29 | 33.64924 | -116.25988 | 3146 ft | 186 kts | 251° |
| 2026-05-06 21:29 | 33.64595 | -116.27522 | 3158 ft | 197 kts | 261° |
| 2026-05-06 21:29 | 33.64483 | -116.29178 | 3153 ft | 201 kts | 272° |
| 2026-05-06 21:30 | 33.64619 | -116.30829 | 3125 ft | 196 kts | 283° |
| 2026-05-06 21:30 | 33.64981 | -116.32384 | 3078 ft | 193 kts | 294° |
| 2026-05-06 21:30 | 33.65560 | -116.33835 | 3104 ft | 193 kts | 303° |
| 2026-05-06 21:30 | 33.66327 | -116.35142 | 3096 ft | 188 kts | 313° |
| 2026-05-06 21:31 | 33.67233 | -116.36208 | 3085 ft | 177 kts | 322° |
| 2026-05-06 21:31 | 33.68212 | -116.37135 | 3121 ft | 185 kts | 323° |
| 2026-05-06 21:31 | 33.69244 | -116.38086 | 3140 ft | 187 kts | 324° |
| 2026-05-06 21:31 | 33.70292 | -116.39050 | 3138 ft | 193 kts | 324° |
| 2026-05-06 21:32 | 33.71334 | -116.40017 | 3104 ft | 183 kts | 323° |
| 2026-05-06 21:32 | 33.73202 | -116.41750 | 2739 ft | 161 kts | 324° |
| 2026-05-06 21:32 | 33.74063 | -116.42549 | 2518 ft | 154 kts | 324° |
| 2026-05-06 21:33 | 33.74904 | -116.43329 | 2344 ft | 152 kts | 326° |
| 2026-05-06 21:33 | 33.75757 | -116.44118 | 2112 ft | 154 kts | 324° |
| 2026-05-06 21:33 | 33.76596 | -116.44945 | 1793 ft | 157 kts | 321° |
| 2026-05-06 21:33 | 33.77411 | -116.45790 | 1589 ft | 153 kts | 322° |
| 2026-05-06 21:34 | 33.78268 | -116.46522 | 1430 ft | 151 kts | 326° |
| 2026-05-06 21:34 | 33.79130 | -116.47287 | 1249 ft | 156 kts | 322° |
| 2026-05-06 21:34 | 33.79994 | -116.48101 | 1088 ft | 159 kts | 319° |
| 2026-05-06 21:34 | 33.80856 | -116.48917 | 837 ft | 156 kts | 324° |
| 2026-05-06 21:35 | 33.81730 | -116.49671 | 556 ft | 152 kts | 321° |
| 2026-05-06 21:35 | 33.82546 | -116.50394 | 415 ft | 136 kts | 324° |
| 2026-05-06 21:35 | 33.82907 | -116.50720 | 429 ft | 10 kts | 285° |
| 2026-05-06 21:35 | 33.82885 | -116.50799 | 441 ft | 10 kts | 249° |
| 2026-05-06 21:36 | 33.82837 | -116.50845 | 438 ft | 10 kts | 166° |
| 2026-05-06 21:36 | 33.82810 | -116.50829 | 436 ft | 1 kts | 149° |
| 2026-05-06 21:36 | 33.82807 | -116.50827 | 436 ft | 0 kts | 147° |
| 2026-05-06 21:37 | 33.82806 | -116.50826 | 436 ft | 3 kts | 147° |
| 2026-05-06 21:37 | 33.82743 | -116.50773 | 427 ft | 16 kts | 144° |
| 2026-05-06 21:37 | 33.82647 | -116.50688 | 431 ft | 18 kts | 143° |
| 2026-05-06 21:37 | 33.82547 | -116.50620 | 425 ft | 12 kts | 197° |
| 2026-05-06 21:38 | 33.82475 | -116.50615 | 421 ft | 11 kts | 148° |
| 2026-05-06 21:38 | 33.82412 | -116.50564 | 422 ft | 11 kts | 143° |
| 2026-05-06 21:38 | 33.82357 | -116.50550 | 417 ft | 1 kts | 240° |
| 2026-05-06 21:38 | 33.82355 | -116.50558 | 422 ft | 1 kts | 252° |
| 2026-05-06 21:39 | 33.82351 | -116.50573 | 418 ft | 3 kts | 252° |
| 2026-05-06 21:39 | 33.82347 | -116.50586 | 422 ft | 0 kts | 252° |